sensor_id;sensor_type;location;lat;lon;timestamp;pressure;altitude;pressure_sealevel;temperature;humidity
48244;BME280;34053;51.088;6.572;2023-04-05T00:02:23;101798.09;;;6.64;49.93
48244;BME280;34053;51.088;6.572;2023-04-05T00:04:59;101792.84;;;6.59;49.68
48244;BME280;34053;51.088;6.572;2023-04-05T00:07:29;101793.75;;;6.63;49.46
48244;BME280;34053;51.088;6.572;2023-04-05T00:10:03;101788.50;;;6.58;49.81
48244;BME280;34053;51.088;6.572;2023-04-05T00:12:34;101791.00;;;6.43;50.18
48244;BME280;34053;51.088;6.572;2023-04-05T00:15:04;101792.78;;;6.49;49.84
48244;BME280;34053;51.088;6.572;2023-04-05T00:17:35;101794.50;;;6.45;50.02
48244;BME280;34053;51.088;6.572;2023-04-05T00:20:06;101787.50;;;6.38;50.04
48244;BME280;34053;51.088;6.572;2023-04-05T00:22:37;101788.44;;;6.44;49.84
48244;BME280;34053;51.088;6.572;2023-04-05T00:25:08;101779.66;;;6.35;50.86
48244;BME280;34053;51.088;6.572;2023-04-05T00:27:42;101775.25;;;6.27;51.06
48244;BME280;34053;51.088;6.572;2023-04-05T00:30:12;101773.53;;;6.31;49.68
48244;BME280;34053;51.088;6.572;2023-04-05T00:32:49;101772.72;;;6.37;49.56
48244;BME280;34053;51.088;6.572;2023-04-05T00:35:20;101770.06;;;6.30;49.54
48244;BME280;34053;51.088;6.572;2023-04-05T00:37:51;101777.00;;;6.28;48.94
48244;BME280;34053;51.088;6.572;2023-04-05T00:40:22;101778.72;;;6.25;48.99
48244;BME280;34053;51.088;6.572;2023-04-05T00:42:52;101785.69;;;6.27;49.38
48244;BME280;34053;51.088;6.572;2023-04-05T00:45:23;101782.13;;;6.21;48.91
48244;BME280;34053;51.088;6.572;2023-04-05T00:47:53;101784.63;;;6.04;49.93
48244;BME280;34053;51.088;6.572;2023-04-05T00:50:26;101775.09;;;6.06;50.07
48244;BME280;34053;51.088;6.572;2023-04-05T00:53:00;101769.88;;;6.06;49.60
48244;BME280;34053;51.088;6.572;2023-04-05T00:55:30;101768.06;;;5.98;49.38
48244;BME280;34053;51.088;6.572;2023-04-05T00:58:03;101768.91;;;5.97;49.45
48244;BME280;34053;51.088;6.572;2023-04-05T01:00:36;101764.50;;;5.93;49.26
48244;BME280;34053;51.088;6.572;2023-04-05T01:03:08;101764.50;;;5.92;50.11
48244;BME280;34053;51.088;6.572;2023-04-05T01:05:43;101764.50;;;5.93;49.65
48244;BME280;34053;51.088;6.572;2023-04-05T01:08:31;101761.00;;;5.88;49.84
48244;BME280;34053;51.088;6.572;2023-04-05T01:11:04;101757.50;;;5.88;49.61
48244;BME280;34053;51.088;6.572;2023-04-05T01:13:36;101750.50;;;5.80;50.30
48244;BME280;34053;51.088;6.572;2023-04-05T01:16:06;101754.81;;;5.74;49.86
48244;BME280;34053;51.088;6.572;2023-04-05T01:18:37;101758.25;;;5.74;50.09
48244;BME280;34053;51.088;6.572;2023-04-05T01:24:41;101762.47;;;5.61;49.34
48244;BME280;34053;51.088;6.572;2023-04-05T01:27:18;101762.38;;;5.52;50.06
48244;BME280;34053;51.088;6.572;2023-04-05T01:30:08;101755.47;;;5.54;50.31
48244;BME280;34053;51.088;6.572;2023-04-05T01:33:24;101757.22;;;5.58;50.71
48244;BME280;34053;51.088;6.572;2023-04-05T01:36:01;101752.91;;;5.59;49.95
48244;BME280;34053;51.088;6.572;2023-04-05T01:38:38;101745.91;;;5.55;49.81
48244;BME280;34053;51.088;6.572;2023-04-05T01:41:09;101746.78;;;5.54;49.99
48244;BME280;34053;51.088;6.572;2023-04-05T01:43:39;101748.50;;;5.53;49.95
48244;BME280;34053;51.088;6.572;2023-04-05T01:46:10;101748.47;;;5.50;50.23
48244;BME280;34053;51.088;6.572;2023-04-05T01:48:40;101749.34;;;5.50;50.55
48244;BME280;34053;51.088;6.572;2023-04-05T01:51:11;101744.09;;;5.47;51.19
48244;BME280;34053;51.088;6.572;2023-04-05T01:53:41;101734.53;;;5.45;50.06
48244;BME280;34053;51.088;6.572;2023-04-05T01:56:12;101731.94;;;5.46;51.50
48244;BME280;34053;51.088;6.572;2023-04-05T01:58:42;101738.00;;;5.44;51.49
48244;BME280;34053;51.088;6.572;2023-04-05T02:01:12;101733.69;;;5.46;52.21
48244;BME280;34053;51.088;6.572;2023-04-05T02:03:43;101732.78;;;5.41;51.67
48244;BME280;34053;51.088;6.572;2023-04-05T02:06:13;101733.63;;;5.40;51.89
48244;BME280;34053;51.088;6.572;2023-04-05T02:08:44;101738.91;;;5.47;51.36
48244;BME280;34053;51.088;6.572;2023-04-05T02:11:15;101736.34;;;5.49;50.94
48244;BME280;34053;51.088;6.572;2023-04-05T02:13:45;101736.28;;;5.46;51.17
48244;BME280;34053;51.088;6.572;2023-04-05T02:16:16;101731.88;;;5.42;50.89
48244;BME280;34053;51.088;6.572;2023-04-05T02:18:47;101725.72;;;5.33;50.93
48244;BME280;34053;51.088;6.572;2023-04-05T02:21:20;101724.03;;;5.35;51.00
48244;BME280;34053;51.088;6.572;2023-04-05T02:23:51;101724.81;;;5.27;51.19
48244;BME280;34053;51.088;6.572;2023-04-05T02:26:22;101729.13;;;5.26;51.10
48244;BME280;34053;51.088;6.572;2023-04-05T02:28:53;101725.66;;;5.27;50.69
48244;BME280;34053;51.088;6.572;2023-04-05T02:31:23;101725.66;;;5.27;51.31
48244;BME280;34053;51.088;6.572;2023-04-05T02:33:54;101727.38;;;5.25;51.32
48244;BME280;34053;51.088;6.572;2023-04-05T02:36:25;101722.16;;;5.22;52.03
48244;BME280;34053;51.088;6.572;2023-04-05T02:38:57;101734.28;;;5.22;51.27
48244;BME280;34053;51.088;6.572;2023-04-05T02:41:27;101727.31;;;5.19;50.93
48244;BME280;34053;51.088;6.572;2023-04-05T02:43:58;101722.91;;;5.13;51.69
48244;BME280;34053;51.088;6.572;2023-04-05T02:46:29;101722.91;;;5.12;51.63
48244;BME280;34053;51.088;6.572;2023-04-05T02:48:59;101727.22;;;5.10;51.81
48244;BME280;34053;51.088;6.572;2023-04-05T02:51:30;101728.09;;;5.12;51.60
48244;BME280;34053;51.088;6.572;2023-04-05T02:54:03;101722.84;;;5.07;51.26
48244;BME280;34053;51.088;6.572;2023-04-05T02:56:34;101722.00;;;5.07;52.04
48244;BME280;34053;51.088;6.572;2023-04-05T02:59:04;101720.22;;;5.06;51.84
48244;BME280;34053;51.088;6.572;2023-04-05T03:01:35;101716.78;;;5.07;51.50
48244;BME280;34053;51.088;6.572;2023-04-05T03:04:13;101715.81;;;4.98;52.71
48244;BME280;34053;51.088;6.572;2023-04-05T03:06:43;101721.03;;;5.00;51.15
48244;BME280;34053;51.088;6.572;2023-04-05T03:09:17;101719.28;;;5.00;52.61
48244;BME280;34053;51.088;6.572;2023-04-05T03:11:48;101724.47;;;4.96;52.63
48244;BME280;34053;51.088;6.572;2023-04-05T03:14:18;101716.69;;;5.00;51.95
48244;BME280;34053;51.088;6.572;2023-04-05T03:16:48;101725.34;;;4.98;51.86
48244;BME280;34053;51.088;6.572;2023-04-05T03:19:19;101725.28;;;4.93;52.66
48244;BME280;34053;51.088;6.572;2023-04-05T03:21:52;101720.06;;;4.93;52.13
48244;BME280;34053;51.088;6.572;2023-04-05T03:24:23;101714.81;;;4.87;52.43
48244;BME280;34053;51.088;6.572;2023-04-05T03:26:53;101718.22;;;4.83;51.90
48244;BME280;34053;51.088;6.572;2023-04-05T03:29:24;101704.34;;;4.84;52.45
48244;BME280;34053;51.088;6.572;2023-04-05T03:31:54;101710.38;;;4.81;52.03
48244;BME280;34053;51.088;6.572;2023-04-05T03:34:25;101702.56;;;4.78;52.93
48244;BME280;34053;51.088;6.572;2023-04-05T03:36:57;101708.69;;;4.82;52.39
48244;BME280;34053;51.088;6.572;2023-04-05T03:39:28;101708.69;;;4.83;52.38
48244;BME280;34053;51.088;6.572;2023-04-05T03:41:59;101700.84;;;4.80;52.98
48244;BME280;34053;51.088;6.572;2023-04-05T03:44:30;101702.53;;;4.75;52.57
48244;BME280;34053;51.088;6.572;2023-04-05T03:47:01;101701.72;;;4.79;52.67
48244;BME280;34053;51.088;6.572;2023-04-05T03:49:31;101704.25;;;4.75;51.90
48244;BME280;34053;51.088;6.572;2023-04-05T03:52:02;101697.31;;;4.73;52.53
48244;BME280;34053;51.088;6.572;2023-04-05T03:54:32;101698.09;;;4.69;52.70
48244;BME280;34053;51.088;6.572;2023-04-05T03:57:03;101697.13;;;4.61;52.99
48244;BME280;34053;51.088;6.572;2023-04-05T03:59:33;101693.69;;;4.62;53.94
48244;BME280;34053;51.088;6.572;2023-04-05T04:02:03;101698.94;;;4.65;52.95
48244;BME280;34053;51.088;6.572;2023-04-05T04:04:34;101704.13;;;4.65;52.45
48244;BME280;34053;51.088;6.572;2023-04-05T04:07:04;101702.31;;;4.58;53.27
48244;BME280;34053;51.088;6.572;2023-04-05T04:09:35;101699.72;;;4.58;53.54
48244;BME280;34053;51.088;6.572;2023-04-05T04:12:06;101697.91;;;4.55;52.97
48244;BME280;34053;51.088;6.572;2023-04-05T04:14:36;101702.28;;;4.56;53.04
48244;BME280;34053;51.088;6.572;2023-04-05T04:17:07;101696.97;;;4.49;53.67
48244;BME280;34053;51.088;6.572;2023-04-05T04:19:37;101700.44;;;4.48;53.68
48244;BME280;34053;51.088;6.572;2023-04-05T04:22:07;101699.59;;;4.49;53.02
48244;BME280;34053;51.088;6.572;2023-04-05T04:24:39;101697.81;;;4.46;52.54
48244;BME280;34053;51.088;6.572;2023-04-05T04:27:09;101700.38;;;4.43;53.38
48244;BME280;34053;51.088;6.572;2023-04-05T04:29:40;101692.56;;;4.43;52.65
48244;BME280;34053;51.088;6.572;2023-04-05T04:32:17;101696.84;;;4.39;53.99
48244;BME280;34053;51.088;6.572;2023-04-05T04:34:55;101695.94;;;4.36;52.81
48244;BME280;34053;51.088;6.572;2023-04-05T04:37:28;101692.38;;;4.31;53.28
48244;BME280;34053;51.088;6.572;2023-04-05T04:39:59;101696.66;;;4.27;53.53
48244;BME280;34053;51.088;6.572;2023-04-05T04:42:35;101696.59;;;4.22;53.85
48244;BME280;34053;51.088;6.572;2023-04-05T04:45:08;101694.06;;;4.25;53.78
48244;BME280;34053;51.088;6.572;2023-04-05T04:47:39;101695.72;;;4.22;53.94
48244;BME280;34053;51.088;6.572;2023-04-05T04:50:12;101693.16;;;4.23;53.11
48244;BME280;34053;51.088;6.572;2023-04-05T04:52:42;101697.44;;;4.20;53.77
48244;BME280;34053;51.088;6.572;2023-04-05T04:55:13;101700.84;;;4.17;53.53
48244;BME280;34053;51.088;6.572;2023-04-05T04:57:44;101700.78;;;4.14;54.20
48244;BME280;34053;51.088;6.572;2023-04-05T05:00:14;101692.94;;;4.09;54.47
48244;BME280;34053;51.088;6.572;2023-04-05T05:02:46;101697.31;;;4.12;53.74
48244;BME280;34053;51.088;6.572;2023-04-05T05:05:17;101698.13;;;4.09;53.81
48244;BME280;34053;51.088;6.572;2023-04-05T05:07:48;101698.13;;;4.09;53.36
48244;BME280;34053;51.088;6.572;2023-04-05T05:10:19;101700.69;;;4.05;54.49
48244;BME280;34053;51.088;6.572;2023-04-05T05:12:49;101696.28;;;4.02;53.03
48244;BME280;34053;51.088;6.572;2023-04-05T05:15:20;101690.19;;;3.99;55.00
48244;BME280;34053;51.088;6.572;2023-04-05T05:17:51;101695.34;;;3.97;55.03
48244;BME280;34053;51.088;6.572;2023-04-05T05:20:25;101693.59;;;3.96;54.09
48244;BME280;34053;51.088;6.572;2023-04-05T05:22:57;101690.94;;;3.91;54.91
48244;BME280;34053;51.088;6.572;2023-04-05T05:25:30;101694.41;;;3.92;54.39
48244;BME280;34053;51.088;6.572;2023-04-05T05:28:00;101698.66;;;3.87;55.12
48244;BME280;34053;51.088;6.572;2023-04-05T05:30:31;101698.63;;;3.85;55.52
48244;BME280;34053;51.088;6.572;2023-04-05T05:33:02;101706.50;;;3.90;54.87
48244;BME280;34053;51.088;6.572;2023-04-05T05:35:33;101699.63;;;3.92;54.28
48244;BME280;34053;51.088;6.572;2023-04-05T05:38:03;101695.88;;;3.77;54.67
48244;BME280;34053;51.088;6.572;2023-04-05T05:40:34;101697.66;;;3.78;54.40
48244;BME280;34053;51.088;6.572;2023-04-05T05:43:04;101691.66;;;3.83;54.02
48244;BME280;34053;51.088;6.572;2023-04-05T05:45:35;101694.22;;;3.81;54.40
48244;BME280;34053;51.088;6.572;2023-04-05T05:48:06;101688.16;;;3.79;54.08
48244;BME280;34053;51.088;6.572;2023-04-05T05:50:36;101694.13;;;3.76;54.53
48244;BME280;34053;51.088;6.572;2023-04-05T05:53:08;101692.41;;;3.75;53.72
48244;BME280;34053;51.088;6.572;2023-04-05T05:55:38;101689.75;;;3.71;54.93
48244;BME280;34053;51.088;6.572;2023-04-05T05:58:09;101686.34;;;3.75;54.00
48244;BME280;34053;51.088;6.572;2023-04-05T06:00:39;101690.66;;;3.74;54.51
48244;BME280;34053;51.088;6.572;2023-04-05T06:03:10;101699.22;;;3.69;56.01
48244;BME280;34053;51.088;6.572;2023-04-05T06:05:50;101695.78;;;3.71;55.06
48244;BME280;34053;51.088;6.572;2023-04-05T06:08:20;101695.78;;;3.71;54.87
48244;BME280;34053;51.088;6.572;2023-04-05T06:10:51;101694.94;;;3.71;54.86
48244;BME280;34053;51.088;6.572;2023-04-05T06:13:22;101701.81;;;3.67;54.70
48244;BME280;34053;51.088;6.572;2023-04-05T06:15:53;101707.84;;;3.66;55.79
48244;BME280;34053;51.088;6.572;2023-04-05T06:18:23;101700.03;;;3.66;56.10
48244;BME280;34053;51.088;6.572;2023-04-05T06:20:54;101699.19;;;3.67;56.40
48244;BME280;34053;51.088;6.572;2023-04-05T06:23:25;101695.72;;;3.68;55.94
48244;BME280;34053;51.088;6.572;2023-04-05T06:25:55;101705.31;;;3.71;55.82
48244;BME280;34053;51.088;6.572;2023-04-05T06:28:26;101698.41;;;3.73;55.97
48244;BME280;34053;51.088;6.572;2023-04-05T06:30:59;101702.75;;;3.72;55.37
48244;BME280;34053;51.088;6.572;2023-04-05T06:33:30;101699.31;;;3.75;55.39
48244;BME280;34053;51.088;6.572;2023-04-05T06:36:00;101697.63;;;3.75;55.92
48244;BME280;34053;51.088;6.572;2023-04-05T06:38:31;101700.22;;;3.77;55.44
48244;BME280;34053;51.088;6.572;2023-04-05T06:41:01;101701.94;;;3.76;56.36
48244;BME280;34053;51.088;6.572;2023-04-05T06:43:32;101701.97;;;3.78;56.56
48244;BME280;34053;51.088;6.572;2023-04-05T06:46:02;101702.94;;;3.85;56.58
48244;BME280;34053;51.088;6.572;2023-04-05T06:48:34;101699.56;;;3.89;56.97
48244;BME280;34053;51.088;6.572;2023-04-05T06:51:04;101695.34;;;3.96;56.14
48244;BME280;34053;51.088;6.572;2023-04-05T06:53:35;101699.88;;;4.10;56.13
48244;BME280;34053;51.088;6.572;2023-04-05T06:56:06;101698.38;;;4.25;55.73
48244;BME280;34053;51.088;6.572;2023-04-05T06:58:37;101705.41;;;4.32;56.31
48244;BME280;34053;51.088;6.572;2023-04-05T07:01:07;101702.06;;;4.43;57.53
48244;BME280;34053;51.088;6.572;2023-04-05T07:03:38;101695.22;;;4.48;57.28
48244;BME280;34053;51.088;6.572;2023-04-05T07:06:08;101697.13;;;4.61;57.70
48244;BME280;34053;51.088;6.572;2023-04-05T07:08:39;101686.16;;;4.84;56.38
48244;BME280;34053;51.088;6.572;2023-04-05T07:11:11;101690.63;;;4.94;56.07
48244;BME280;34053;51.088;6.572;2023-04-05T07:13:42;101689.81;;;4.98;55.60
48244;BME280;34053;51.088;6.572;2023-04-05T07:16:12;101682.78;;;4.91;56.35
48244;BME280;34053;51.088;6.572;2023-04-05T07:18:43;101686.31;;;4.96;56.07
48244;BME280;34053;51.088;6.572;2023-04-05T07:21:13;101681.06;;;4.93;56.45
48244;BME280;34053;51.088;6.572;2023-04-05T07:23:44;101679.41;;;5.00;56.16
48244;BME280;34053;51.088;6.572;2023-04-05T07:26:14;101678.56;;;5.01;55.94
48244;BME280;34053;51.088;6.572;2023-04-05T07:28:45;101687.28;;;5.04;55.29
48244;BME280;34053;51.088;6.572;2023-04-05T07:31:15;101680.31;;;5.05;55.88
48244;BME280;34053;51.088;6.572;2023-04-05T07:33:46;101689.03;;;5.06;55.55
48244;BME280;34053;51.088;6.572;2023-04-05T07:36:17;101689.03;;;5.06;55.55
48244;BME280;34053;51.088;6.572;2023-04-05T07:38:47;101682.13;;;5.11;55.49
48244;BME280;34053;51.088;6.572;2023-04-05T07:41:18;101686.44;;;5.09;55.65
48244;BME280;34053;51.088;6.572;2023-04-05T07:43:49;101686.31;;;4.98;56.37
48244;BME280;34053;51.088;6.572;2023-04-05T07:46:20;101687.97;;;4.89;56.97
48244;BME280;34053;51.088;6.572;2023-04-05T07:48:51;101683.75;;;4.99;56.84
48244;BME280;34053;51.088;6.572;2023-04-05T07:51:22;101685.53;;;5.03;56.35
48244;BME280;34053;51.088;6.572;2023-04-05T07:53:52;101688.78;;;4.87;57.37
48244;BME280;34053;51.088;6.572;2023-04-05T07:56:23;101691.44;;;4.90;57.13
48244;BME280;34053;51.088;6.572;2023-04-05T07:58:53;101698.22;;;4.77;58.04
48244;BME280;34053;51.088;6.572;2023-04-05T08:01:24;101692.28;;;4.89;57.41
48244;BME280;34053;51.088;6.572;2023-04-05T08:03:57;101689.72;;;4.92;57.18
48244;BME280;34053;51.088;6.572;2023-04-05T08:06:27;101695.88;;;4.97;57.78
48244;BME280;34053;51.088;6.572;2023-04-05T08:08:58;101701.91;;;4.96;57.87
48244;BME280;34053;51.088;6.572;2023-04-05T08:11:28;101699.59;;;5.21;56.92
48244;BME280;34053;51.088;6.572;2023-04-05T08:13:58;101699.69;;;5.30;55.93
48244;BME280;34053;51.088;6.572;2023-04-05T08:16:29;101704.91;;;5.29;55.95
48244;BME280;34053;51.088;6.572;2023-04-05T08:18:59;101703.09;;;5.26;55.68
48244;BME280;34053;51.088;6.572;2023-04-05T08:21:30;101704.00;;;5.27;54.72
48244;BME280;34053;51.088;6.572;2023-04-05T08:24:08;101697.88;;;5.23;55.64
48244;BME280;34053;51.088;6.572;2023-04-05T08:27:00;101691.03;;;5.31;55.10
48244;BME280;34053;51.088;6.572;2023-04-05T08:29:34;101697.19;;;5.40;55.30
48244;BME280;34053;51.088;6.572;2023-04-05T08:32:05;101694.44;;;5.27;54.66
48244;BME280;34053;51.088;6.572;2023-04-05T08:34:36;101692.75;;;5.29;54.82
48244;BME280;34053;51.088;6.572;2023-04-05T08:37:06;101692.00;;;5.41;55.27
48244;BME280;34053;51.088;6.572;2023-04-05T08:39:37;101689.44;;;5.44;55.39
48244;BME280;34053;51.088;6.572;2023-04-05T08:42:33;101692.84;;;5.39;55.81
48244;BME280;34053;51.088;6.572;2023-04-05T08:45:08;101686.78;;;5.41;56.14
48244;BME280;34053;51.088;6.572;2023-04-05T08:47:42;101683.25;;;5.34;55.79
48244;BME280;34053;51.088;6.572;2023-04-05T08:50:19;101686.78;;;5.40;55.69
48244;BME280;34053;51.088;6.572;2023-04-05T08:56:57;101683.44;;;5.53;55.38
48244;BME280;34053;51.088;6.572;2023-04-05T08:59:33;101686.06;;;5.56;55.45
48244;BME280;34053;51.088;6.572;2023-04-05T09:02:35;101689.63;;;5.64;54.62
48244;BME280;34053;51.088;6.572;2023-04-05T09:05:49;101690.50;;;5.68;53.33
48244;BME280;34053;51.088;6.572;2023-04-05T09:08:28;101681.84;;;5.69;54.02
48244;BME280;34053;51.088;6.572;2023-04-05T09:11:05;101678.47;;;5.84;53.50
48244;BME280;34053;51.088;6.572;2023-04-05T09:13:44;101680.13;;;5.74;53.55
48244;BME280;34053;51.088;6.572;2023-04-05T09:16:52;101681.06;;;5.81;53.79
48244;BME280;34053;51.088;6.572;2023-04-05T09:19:34;101672.41;;;5.83;54.31
48244;BME280;34053;51.088;6.572;2023-04-05T09:22:08;101675.91;;;5.89;53.88
48244;BME280;34053;51.088;6.572;2023-04-05T09:24:46;101674.34;;;6.05;55.24
48244;BME280;34053;51.088;6.572;2023-04-05T09:27:19;101674.34;;;6.08;54.70
48244;BME280;34053;51.088;6.572;2023-04-05T09:29:50;101680.50;;;6.18;53.85
48244;BME280;34053;51.088;6.572;2023-04-05T09:32:24;101673.56;;;6.23;54.07
48244;BME280;34053;51.088;6.572;2023-04-05T09:34:58;101673.56;;;6.24;53.82
48244;BME280;34053;51.088;6.572;2023-04-05T09:37:49;101672.81;;;6.38;53.55
48244;BME280;34053;51.088;6.572;2023-04-05T09:40:23;101664.94;;;6.28;53.30
48244;BME280;34053;51.088;6.572;2023-04-05T09:42:53;101666.72;;;6.40;53.76
48244;BME280;34053;51.088;6.572;2023-04-05T09:45:26;101675.47;;;6.50;54.02
48244;BME280;34053;51.088;6.572;2023-04-05T09:47:57;101670.28;;;6.52;53.56
48244;BME280;34053;51.088;6.572;2023-04-05T09:50:27;101668.53;;;6.57;52.50
48244;BME280;34053;51.088;6.572;2023-04-05T10:10:37;101651.34;;;7.12;51.46
48244;BME280;34053;51.088;6.572;2023-04-05T10:13:15;101660.03;;;7.15;51.99
48244;BME280;34053;51.088;6.572;2023-04-05T10:15:49;101661.81;;;7.24;50.69
48244;BME280;34053;51.088;6.572;2023-04-05T10:18:23;101651.34;;;7.16;50.30
48244;BME280;34053;51.088;6.572;2023-04-05T10:20:58;101648.75;;;7.21;49.67
48244;BME280;34053;51.088;6.572;2023-04-05T10:23:32;101653.09;;;7.22;49.49
48244;BME280;34053;51.088;6.572;2023-04-05T10:26:23;101647.91;;;7.37;48.70
48244;BME280;34053;51.088;6.572;2023-04-05T10:29:08;101638.34;;;7.38;46.80
48244;BME280;34053;51.088;6.572;2023-04-05T10:31:54;101636.59;;;7.46;48.85
48244;BME280;34053;51.088;6.572;2023-04-05T10:34:41;101636.59;;;7.49;48.89
48244;BME280;34053;51.088;6.572;2023-04-05T10:40:07;101639.19;;;7.65;49.46
48244;BME280;34053;51.088;6.572;2023-04-05T10:42:42;101634.00;;;7.76;47.02
48244;BME280;34053;51.088;6.572;2023-04-05T10:45:16;101631.38;;;7.74;47.87
48244;BME280;34053;51.088;6.572;2023-04-05T10:48:28;101628.75;;;7.82;46.70
48244;BME280;34053;51.088;6.572;2023-04-05T10:51:00;101630.50;;;7.84;47.13
48244;BME280;34053;51.088;6.572;2023-04-05T10:53:30;101627.03;;;7.84;46.56
48244;BME280;34053;51.088;6.572;2023-04-05T10:56:04;101625.25;;;8.00;47.98
48244;BME280;34053;51.088;6.572;2023-04-05T10:58:35;101619.16;;;7.99;45.89
48244;BME280;34053;51.088;6.572;2023-04-05T11:01:09;101620.03;;;7.95;47.14
48244;BME280;34053;51.088;6.572;2023-04-05T11:03:52;101612.16;;;8.06;47.50
48244;BME280;34053;51.088;6.572;2023-04-05T11:11:50;101606.91;;;8.15;46.63
48244;BME280;34053;51.088;6.572;2023-04-05T11:14:25;101606.06;;;8.18;46.52
48244;BME280;34053;51.088;6.572;2023-04-05T11:17:23;101606.91;;;8.18;47.18
48244;BME280;34053;51.088;6.572;2023-04-05T11:20:02;101610.34;;;8.36;44.65
48244;BME280;34053;51.088;6.572;2023-04-05T11:22:33;101600.75;;;8.38;46.02
48244;BME280;34053;51.088;6.572;2023-04-05T11:25:04;101602.47;;;8.48;45.38
48244;BME280;34053;51.088;6.572;2023-04-05T11:27:35;101598.94;;;8.59;45.71
48244;BME280;34053;51.088;6.572;2023-04-05T11:30:07;101594.56;;;8.58;45.09
48244;BME280;34053;51.088;6.572;2023-04-05T11:32:44;101591.94;;;8.65;46.37
48244;BME280;34053;51.088;6.572;2023-04-05T11:35:18;101592.84;;;8.60;44.35
48244;BME280;34053;51.088;6.572;2023-04-05T11:40:35;101584.00;;;8.84;45.46
48244;BME280;34053;51.088;6.572;2023-04-05T11:43:08;101580.47;;;8.91;45.77
48244;BME280;34053;51.088;6.572;2023-04-05T11:45:40;101575.19;;;8.93;45.58
48244;BME280;34053;51.088;6.572;2023-04-05T11:48:13;101574.13;;;9.20;44.97
48244;BME280;34053;51.088;6.572;2023-04-05T11:50:46;101580.00;;;9.49;45.61
48244;BME280;34053;51.088;6.572;2023-04-05T11:53:17;101569.56;;;9.45;45.43
48244;BME280;34053;51.088;6.572;2023-04-05T11:55:49;101566.59;;;9.80;43.63
48244;BME280;34053;51.088;6.572;2023-04-05T11:58:23;101562.41;;;9.65;44.51
48244;BME280;34053;51.088;6.572;2023-04-05T12:00:58;101561.53;;;9.66;42.59
48244;BME280;34053;51.088;6.572;2023-04-05T12:03:29;101554.50;;;9.68;42.76
48244;BME280;34053;51.088;6.572;2023-04-05T12:06:01;101553.50;;;9.80;42.11
48244;BME280;34053;51.088;6.572;2023-04-05T12:08:42;101547.38;;;9.81;42.43
48244;BME280;34053;51.088;6.572;2023-04-05T12:14:00;101547.06;;;10.12;40.31
48244;BME280;34053;51.088;6.572;2023-04-05T12:16:31;101542.47;;;10.28;39.32
48244;BME280;34053;51.088;6.572;2023-04-05T12:19:01;101545.00;;;10.34;40.01
48244;BME280;34053;51.088;6.572;2023-04-05T12:21:32;101538.94;;;10.30;39.32
48244;BME280;34053;51.088;6.572;2023-04-05T12:24:03;101539.00;;;10.27;38.52
48244;BME280;34053;51.088;6.572;2023-04-05T12:26:34;101531.00;;;10.36;40.54
48244;BME280;34053;51.088;6.572;2023-04-05T12:29:04;101532.72;;;10.41;38.42
48244;BME280;34053;51.088;6.572;2023-04-05T12:31:42;101535.25;;;10.48;39.76
48244;BME280;34053;51.088;6.572;2023-04-05T12:34:14;101532.44;;;10.61;39.85
48244;BME280;34053;51.088;6.572;2023-04-05T12:36:52;101522.97;;;10.52;39.91
48244;BME280;34053;51.088;6.572;2023-04-05T12:39:27;101525.56;;;10.53;40.87
48244;BME280;34053;51.088;6.572;2023-04-05T12:41:58;101531.59;;;10.60;41.13
48244;BME280;34053;51.088;6.572;2023-04-05T12:44:30;101522.59;;;10.77;40.47
48244;BME280;34053;51.088;6.572;2023-04-05T12:47:01;101514.53;;;10.91;38.20
48244;BME280;34053;51.088;6.572;2023-04-05T12:49:39;101510.75;;;11.06;38.51
48244;BME280;34053;51.088;6.572;2023-04-05T12:52:10;101513.34;;;11.09;38.08
48244;BME280;34053;51.088;6.572;2023-04-05T12:54:54;101509.59;;;11.22;37.83
48244;BME280;34053;51.088;6.572;2023-04-05T12:57:31;101506.78;;;11.34;37.52
48244;BME280;34053;51.088;6.572;2023-04-05T13:00:02;101500.16;;;11.13;36.88
48244;BME280;34053;51.088;6.572;2023-04-05T13:02:32;101498.00;;;11.36;37.11
48244;BME280;34053;51.088;6.572;2023-04-05T13:05:03;101504.97;;;11.37;34.67
48244;BME280;34053;51.088;6.572;2023-04-05T13:07:33;101497.00;;;11.43;36.79
48244;BME280;34053;51.088;6.572;2023-04-05T13:10:04;101488.91;;;11.54;36.45
48244;BME280;34053;51.088;6.572;2023-04-05T13:12:35;101485.47;;;11.50;37.52
48244;BME280;34053;51.088;6.572;2023-04-05T13:15:06;101482.56;;;11.65;34.22
48244;BME280;34053;51.088;6.572;2023-04-05T13:17:36;101475.50;;;11.68;36.32
48244;BME280;34053;51.088;6.572;2023-04-05T13:20:08;101477.97;;;11.75;33.93
48244;BME280;34053;51.088;6.572;2023-04-05T13:22:38;101473.91;;;11.60;34.90
48244;BME280;34053;51.088;6.572;2023-04-05T13:25:09;101472.72;;;11.75;36.91
48244;BME280;34053;51.088;6.572;2023-04-05T13:27:40;101467.88;;;12.01;34.60
48244;BME280;34053;51.088;6.572;2023-04-05T13:30:10;101469.56;;;12.03;34.23
48244;BME280;34053;51.088;6.572;2023-04-05T13:32:41;101462.94;;;11.82;36.13
48244;BME280;34053;51.088;6.572;2023-04-05T13:35:11;101469.94;;;11.83;35.07
48244;BME280;34053;51.088;6.572;2023-04-05T13:37:42;101463.81;;;11.82;33.84
48244;BME280;34053;51.088;6.572;2023-04-05T13:40:12;101464.59;;;11.86;34.62
48244;BME280;34053;51.088;6.572;2023-04-05T13:42:43;101456.19;;;12.14;34.82
48244;BME280;34053;51.088;6.572;2023-04-05T13:45:13;101449.69;;;13.03;31.91
48244;BME280;34053;51.088;6.572;2023-04-05T13:47:44;101449.88;;;13.30;30.22
48244;BME280;34053;51.088;6.572;2023-04-05T13:50:14;101449.63;;;13.06;32.80
48244;BME280;34053;51.088;6.572;2023-04-05T13:52:45;101454.72;;;12.78;32.59
48244;BME280;34053;51.088;6.572;2023-04-05T13:55:15;101452.25;;;12.71;33.57
48244;BME280;34053;51.088;6.572;2023-04-05T13:57:46;101435.28;;;12.83;33.51
48244;BME280;34053;51.088;6.572;2023-04-05T14:00:16;101437.00;;;12.84;33.35
48244;BME280;34053;51.088;6.572;2023-04-05T14:02:47;101434.53;;;13.13;32.67
48244;BME280;34053;51.088;6.572;2023-04-05T14:05:17;101429.88;;;13.56;31.54
48244;BME280;34053;51.088;6.572;2023-04-05T14:07:48;101430.47;;;12.99;30.84